createdAt,value
2017-12-21T00:01:16.178Z,18.90
2017-12-21T00:03:44.466Z,19.87
2017-12-21T00:06:11.974Z,17.00
2017-12-21T00:08:39.491Z,16.10
2017-12-21T00:11:06.980Z,16.57
2017-12-21T00:13:34.498Z,16.37
2017-12-21T00:16:02.786Z,17.43
2017-12-21T00:18:31.048Z,18.20
2017-12-21T00:20:58.530Z,15.77
2017-12-21T00:23:26.804Z,16.23
2017-12-21T00:25:55.093Z,16.67
2017-12-21T00:28:23.374Z,16.90
2017-12-21T00:30:51.655Z,15.00
2017-12-21T00:33:19.903Z,18.97
2017-12-21T00:35:47.411Z,19.97
2017-12-21T00:38:14.939Z,18.63
2017-12-21T00:40:42.466Z,16.00
2017-12-21T00:43:09.942Z,16.97
2017-12-21T00:45:37.457Z,16.43
2017-12-21T00:48:04.989Z,13.03
2017-12-21T00:50:32.536Z,18.03
2017-12-21T00:53:00.023Z,16.73
2017-12-21T00:55:27.545Z,25.50
2017-12-21T00:57:55.068Z,17.17
2017-12-21T01:00:23.342Z,15.07
2017-12-21T01:02:51.622Z,15.73
2017-12-21T01:05:19.884Z,16.03
2017-12-21T01:07:47.403Z,17.90
2017-12-21T01:10:14.894Z,16.20
2017-12-21T01:12:42.423Z,14.77
2017-12-21T01:15:09.952Z,17.90
2017-12-21T01:17:38.226Z,16.20
2017-12-21T01:20:05.722Z,18.10
2017-12-21T01:22:33.272Z,21.30
2017-12-21T01:25:01.520Z,15.10
2017-12-21T01:27:29.052Z,14.97
2017-12-21T01:29:56.543Z,15.60
2017-12-21T01:32:24.023Z,15.80
2017-12-21T01:34:51.582Z,14.90
2017-12-21T01:37:19.075Z,14.27
2017-12-21T01:39:46.566Z,15.30
2017-12-21T01:42:14.084Z,17.53
2017-12-21T01:44:42.342Z,14.70
2017-12-21T01:47:09.837Z,18.70
2017-12-21T01:49:38.118Z,14.93
2017-12-21T01:52:07.016Z,16.17
2017-12-21T01:54:35.253Z,16.73
2017-12-21T01:57:02.783Z,17.50
2017-12-21T01:59:30.294Z,18.77
2017-12-21T02:01:57.803Z,15.63
2017-12-21T02:04:25.310Z,19.30
2017-12-21T02:06:52.786Z,17.30
2017-12-21T02:09:20.318Z,15.37
2017-12-21T02:11:47.798Z,15.90
2017-12-21T02:14:15.278Z,16.67
2017-12-21T02:16:42.786Z,13.60
2017-12-21T02:19:10.299Z,16.30
2017-12-21T02:21:37.815Z,17.47
2017-12-21T02:24:05.303Z,15.40
2017-12-21T02:26:32.830Z,17.03
2017-12-21T02:29:00.357Z,17.97
2017-12-21T02:31:27.844Z,17.27
2017-12-21T02:33:56.149Z,15.40
2017-12-21T02:36:23.634Z,18.73
2017-12-21T02:38:51.148Z,18.80
2017-12-21T02:41:19.414Z,20.53
2017-12-21T02:43:46.953Z,17.73
2017-12-21T02:46:14.445Z,18.60
2017-12-21T02:48:42.735Z,19.47
2017-12-21T02:51:10.978Z,20.70
2017-12-21T02:53:38.562Z,24.47
2017-12-21T02:56:06.846Z,20.30
2017-12-21T02:58:35.164Z,27.43
2017-12-21T03:01:02.782Z,21.20
2017-12-21T03:03:30.307Z,18.17
2017-12-21T03:05:57.795Z,19.53
2017-12-21T03:08:25.318Z,21.00
2017-12-21T03:10:52.847Z,19.40
2017-12-21T03:13:20.341Z,23.10
2017-12-21T03:15:47.829Z,21.00
2017-12-21T03:18:15.363Z,23.43
2017-12-21T03:20:42.859Z,22.60
2017-12-21T03:23:10.461Z,22.27
2017-12-21T03:25:37.989Z,24.47
2017-12-21T03:28:05.469Z,23.90
2017-12-21T03:30:32.967Z,24.53
2017-12-21T03:33:01.282Z,23.97
2017-12-21T03:35:28.766Z,25.93
2017-12-21T03:37:56.249Z,22.97
2017-12-21T03:40:23.798Z,25.80
2017-12-21T03:42:51.288Z,25.90
2017-12-21T03:45:19.542Z,25.73
2017-12-21T03:47:47.069Z,28.80
2017-12-21T03:50:14.588Z,30.60
2017-12-21T03:52:42.125Z,25.00
2017-12-21T03:55:09.648Z,32.60
2017-12-21T03:57:37.162Z,35.57
2017-12-21T04:00:04.642Z,29.27
2017-12-21T04:02:32.153Z,27.90
2017-12-21T04:04:59.643Z,30.00
2017-12-21T04:07:27.178Z,35.67
2017-12-21T04:09:54.666Z,25.93
2017-12-21T04:12:22.173Z,30.20
2017-12-21T04:14:50.452Z,29.83
2017-12-21T04:17:18.698Z,35.27
2017-12-21T04:19:46.243Z,29.40
2017-12-21T04:22:13.743Z,27.80
2017-12-21T04:24:41.223Z,27.50
2017-12-21T04:27:09.522Z,25.60
2017-12-21T04:29:37.015Z,33.73
2017-12-21T04:32:04.526Z,38.13
2017-12-21T04:34:32.770Z,31.47
2017-12-21T04:37:00.302Z,33.20
2017-12-21T04:39:27.818Z,36.30
2017-12-21T04:41:55.343Z,28.57
2017-12-21T04:44:22.844Z,31.87
2017-12-21T04:46:50.315Z,30.43
2017-12-21T04:49:17.825Z,33.17
2017-12-21T04:51:45.346Z,32.07
2017-12-21T04:54:13.594Z,30.73
2017-12-21T04:56:41.079Z,30.00
2017-12-21T04:59:08.593Z,28.97
2017-12-21T05:01:36.091Z,28.83
2017-12-21T05:04:03.611Z,30.57
2017-12-21T05:06:31.107Z,28.40
2017-12-21T05:08:58.604Z,33.07
2017-12-21T05:11:26.955Z,33.60
2017-12-21T05:13:54.445Z,36.00
2017-12-21T05:16:22.746Z,34.47
2017-12-21T05:18:50.992Z,33.57
2017-12-21T05:21:18.470Z,32.43
2017-12-21T05:23:46.007Z,32.73
2017-12-21T05:26:13.551Z,32.70
2017-12-21T05:28:41.045Z,32.97
2017-12-21T05:31:08.628Z,34.83
2017-12-21T05:33:36.139Z,36.03
2017-12-21T05:36:03.637Z,34.47
2017-12-21T05:38:31.149Z,43.63
2017-12-21T05:40:58.703Z,38.43
2017-12-21T05:43:26.247Z,34.23
2017-12-21T05:45:54.671Z,29.77
2017-12-21T05:48:22.216Z,36.07
2017-12-21T05:50:49.759Z,35.03
2017-12-21T05:53:17.259Z,34.63
2017-12-21T05:55:44.794Z,39.23
2017-12-21T05:58:13.083Z,36.90
2017-12-21T06:00:41.378Z,38.53
2017-12-21T06:03:08.906Z,33.70
2017-12-21T06:05:36.448Z,37.03
2017-12-21T06:08:03.938Z,39.17
2017-12-21T06:10:32.205Z,38.87
2017-12-21T06:12:59.746Z,43.03
2017-12-21T06:15:27.744Z,35.40
2017-12-21T06:17:55.256Z,32.87
2017-12-21T06:20:22.742Z,38.13
2017-12-21T06:22:50.281Z,44.33
2017-12-21T06:25:17.853Z,38.67
2017-12-21T06:27:45.329Z,41.93
2017-12-21T06:30:12.822Z,41.30
2017-12-21T06:32:40.355Z,46.33
2017-12-21T06:35:07.831Z,43.47
2017-12-21T06:37:35.308Z,37.20
2017-12-21T06:40:02.830Z,35.40
2017-12-21T06:42:30.319Z,37.90
2017-12-21T06:44:57.843Z,36.80
2017-12-21T06:47:25.338Z,36.60
2017-12-21T06:49:52.831Z,38.73
2017-12-21T06:52:20.354Z,39.70
2017-12-21T06:54:47.841Z,37.63
2017-12-21T06:57:15.362Z,35.57
2017-12-21T06:59:42.846Z,34.43
2017-12-21T07:02:10.363Z,32.27
2017-12-21T07:04:38.610Z,33.03
2017-12-21T07:07:06.132Z,35.43
2017-12-21T07:09:33.641Z,30.20
2017-12-21T07:12:01.142Z,30.30
2017-12-21T07:14:29.433Z,32.60
2017-12-21T07:16:56.931Z,36.97
2017-12-21T07:19:24.453Z,36.57
2017-12-21T07:21:51.945Z,38.60
2017-12-21T07:24:19.463Z,37.73
2017-12-21T07:26:47.712Z,46.17
2017-12-21T07:29:15.238Z,38.07
2017-12-21T07:31:42.759Z,42.90
2017-12-21T07:34:10.239Z,48.13
2017-12-21T07:36:38.532Z,34.63
2017-12-21T07:39:06.022Z,40.77
2017-12-21T07:41:33.510Z,37.20
2017-12-21T07:44:01.042Z,36.30
2017-12-21T07:46:28.550Z,41.00
2017-12-21T07:48:56.042Z,39.13
2017-12-21T07:51:23.568Z,34.50
2017-12-21T07:53:51.061Z,38.47
2017-12-21T07:56:19.350Z,40.77
2017-12-21T07:58:47.636Z,44.47
2017-12-21T08:01:15.151Z,43.03
2017-12-21T08:03:42.629Z,51.43
2017-12-21T08:06:10.155Z,49.07
2017-12-21T08:08:37.673Z,37.90
2017-12-21T08:11:05.919Z,35.50
2017-12-21T08:13:33.422Z,37.07
2017-12-21T08:16:01.684Z,38.93
2017-12-21T08:18:29.209Z,35.80
2017-12-21T08:20:56.725Z,33.10
2017-12-21T08:23:24.975Z,37.07
2017-12-21T08:25:52.499Z,38.20
2017-12-21T08:28:19.986Z,31.87
2017-12-21T08:30:47.915Z,36.17
2017-12-21T08:33:15.430Z,36.60
2017-12-21T08:35:42.912Z,35.50
2017-12-21T08:38:11.211Z,35.20
2017-12-21T08:40:39.505Z,35.27
2017-12-21T08:43:06.996Z,31.60
2017-12-21T08:45:34.500Z,33.40
2017-12-21T08:48:02.011Z,30.53
2017-12-21T08:50:29.512Z,32.70
2017-12-21T08:52:57.043Z,33.20
2017-12-21T08:55:24.651Z,31.90
2017-12-21T08:57:52.133Z,33.70
2017-12-21T09:00:20.407Z,34.80
2017-12-21T09:02:47.910Z,32.30
2017-12-21T09:05:15.402Z,36.17
2017-12-21T09:07:42.910Z,35.47
2017-12-21T09:10:11.166Z,34.73
2017-12-21T09:12:38.704Z,36.97
2017-12-21T09:15:06.194Z,32.77
2017-12-21T09:17:33.781Z,28.10
2017-12-21T09:20:02.043Z,27.53
2017-12-21T09:22:29.526Z,36.50
2017-12-21T09:24:57.831Z,30.17
2017-12-21T09:27:25.323Z,28.83
2017-12-21T09:29:52.811Z,28.23
2017-12-21T09:32:20.332Z,25.97
2017-12-21T09:34:47.833Z,24.27
2017-12-21T09:37:15.351Z,26.50
2017-12-21T09:39:42.833Z,25.50
2017-12-21T09:42:10.349Z,21.97
2017-12-21T09:44:38.595Z,27.93
2017-12-21T09:47:06.135Z,24.87
2017-12-21T09:49:33.662Z,28.10
2017-12-21T09:52:01.154Z,28.37
2017-12-21T09:54:28.668Z,27.27
2017-12-21T09:56:56.170Z,27.30
2017-12-21T09:59:23.698Z,26.17
2017-12-21T10:01:51.943Z,23.73
2017-12-21T10:04:19.458Z,24.77
2017-12-21T10:06:46.946Z,27.83
2017-12-21T10:09:14.459Z,23.27
2017-12-21T10:11:41.993Z,30.60
2017-12-21T10:14:09.484Z,28.33
2017-12-21T10:16:36.978Z,30.27
2017-12-21T10:19:04.486Z,23.67
2017-12-21T10:21:32.002Z,26.07
2017-12-21T10:23:59.530Z,26.27
2017-12-21T10:26:27.014Z,22.37
2017-12-21T10:28:55.424Z,26.10
2017-12-21T10:31:22.947Z,28.47
2017-12-21T10:33:50.474Z,28.23
2017-12-21T10:36:17.995Z,24.33
2017-12-21T10:38:46.251Z,23.00
2017-12-21T10:41:13.779Z,26.93
2017-12-21T10:43:41.311Z,22.43
2017-12-21T10:46:08.855Z,26.77
2017-12-21T10:48:37.126Z,21.53
2017-12-21T10:51:04.821Z,19.37
2017-12-21T10:53:33.089Z,21.33
2017-12-21T10:56:01.337Z,22.73
2017-12-21T10:58:28.866Z,24.00
2017-12-21T11:00:56.388Z,20.47
2017-12-21T11:03:24.640Z,26.83
2017-12-21T11:05:52.162Z,19.90
2017-12-21T11:08:19.690Z,16.03
2017-12-21T11:10:47.226Z,21.00
2017-12-21T11:13:14.728Z,21.53
2017-12-21T11:15:43.055Z,25.77
2017-12-21T11:18:10.579Z,22.57
2017-12-21T11:20:38.863Z,24.13
2017-12-21T11:23:07.118Z,22.90
2017-12-21T11:25:34.674Z,27.27
2017-12-21T11:28:02.198Z,21.87
2017-12-21T11:30:29.798Z,22.80
2017-12-21T11:32:57.294Z,21.50
2017-12-21T11:35:25.566Z,20.37
2017-12-21T11:37:53.043Z,23.57
2017-12-21T11:40:21.315Z,22.20
2017-12-21T11:42:49.579Z,17.97
2017-12-21T11:45:17.114Z,18.47
2017-12-21T11:47:44.616Z,16.27
2017-12-21T11:50:12.145Z,15.80
2017-12-21T11:52:39.665Z,17.43
2017-12-21T11:55:07.175Z,18.10
2017-12-21T11:57:34.699Z,21.60
2017-12-21T12:00:02.987Z,18.20
2017-12-21T12:02:30.486Z,21.27
2017-12-21T12:04:57.997Z,17.73
2017-12-21T12:07:25.527Z,13.77
2017-12-21T12:09:53.007Z,16.27
2017-12-21T12:12:21.258Z,15.90
2017-12-21T12:14:48.787Z,17.70
2017-12-21T12:17:16.274Z,17.60
2017-12-21T12:19:43.811Z,18.23
2017-12-21T12:22:11.287Z,17.63
2017-12-21T12:24:38.781Z,17.10
2017-12-21T12:27:06.305Z,18.40
2017-12-21T12:29:33.843Z,17.90
2017-12-21T12:32:02.143Z,18.13
2017-12-21T12:34:29.629Z,17.27
2017-12-21T12:36:57.120Z,18.53
2017-12-21T12:39:24.671Z,16.13
2017-12-21T12:41:52.165Z,21.23
2017-12-21T12:44:19.678Z,16.43
2017-12-21T12:46:47.199Z,17.07
2017-12-21T12:49:15.461Z,14.30
2017-12-21T12:51:42.969Z,15.90
2017-12-21T12:54:10.454Z,17.47
2017-12-21T12:56:38.002Z,18.77
2017-12-21T12:59:05.493Z,15.03
2017-12-21T13:01:33.013Z,17.70
2017-12-21T13:04:00.545Z,18.53
2017-12-21T13:06:28.039Z,18.90
2017-12-21T13:08:55.558Z,15.80
2017-12-21T13:11:23.183Z,16.13
2017-12-21T13:13:50.839Z,16.17
2017-12-21T13:16:18.526Z,17.43
2017-12-21T13:18:46.029Z,17.10
2017-12-21T13:21:13.563Z,16.17
2017-12-21T13:23:41.062Z,17.27
2017-12-21T13:26:08.716Z,20.37
2017-12-21T13:28:36.202Z,19.40
2017-12-21T13:31:04.490Z,19.73
2017-12-21T13:33:32.838Z,22.63
2017-12-21T13:36:00.359Z,20.70
2017-12-21T13:38:27.867Z,23.10
2017-12-21T13:40:55.365Z,26.70
2017-12-21T13:43:22.881Z,20.53
2017-12-21T13:45:50.400Z,17.53
2017-12-21T13:48:17.914Z,17.03
2017-12-21T13:50:45.438Z,21.60
2017-12-21T13:53:12.930Z,23.67
2017-12-21T13:55:40.442Z,20.70
2017-12-21T13:58:08.734Z,34.17
2017-12-21T14:00:36.242Z,18.27
2017-12-21T14:03:03.750Z,28.90
2017-12-21T14:05:31.332Z,26.60
2017-12-21T14:07:58.853Z,13.67
2017-12-21T14:10:26.374Z,16.07
2017-12-21T14:12:53.874Z,16.30
2017-12-21T14:15:21.389Z,14.10
2017-12-21T14:17:48.883Z,15.90
2017-12-21T14:20:16.405Z,14.00
2017-12-21T14:22:43.914Z,12.13
2017-12-21T14:25:11.394Z,13.80
2017-12-21T14:27:38.916Z,15.10
2017-12-21T14:30:06.389Z,14.23
2017-12-21T14:32:33.907Z,12.63
2017-12-21T14:35:03.486Z,13.87
2017-12-21T14:37:31.012Z,15.73
2017-12-21T14:39:58.510Z,13.77
2017-12-21T14:42:26.027Z,12.83
2017-12-21T14:44:53.530Z,14.43
2017-12-21T14:47:21.016Z,14.37
2017-12-21T14:49:49.292Z,12.53
2017-12-21T14:52:16.770Z,12.43
2017-12-21T14:54:45.050Z,11.50
2017-12-21T14:57:13.315Z,13.43
2017-12-21T14:59:40.810Z,13.07
2017-12-21T15:02:08.354Z,12.50
2017-12-21T15:04:36.644Z,15.63
2017-12-21T15:07:05.066Z,10.87
2017-12-21T15:09:32.598Z,9.70
2017-12-21T15:12:00.186Z,13.10
2017-12-21T15:14:27.694Z,11.47
2017-12-21T15:16:55.187Z,10.40
2017-12-21T15:19:23.464Z,11.37
2017-12-21T15:21:51.715Z,13.73
2017-12-21T15:24:19.239Z,10.97
2017-12-21T15:26:46.742Z,13.50
2017-12-21T15:29:14.227Z,16.60
2017-12-21T15:31:42.499Z,10.13
2017-12-21T15:34:11.003Z,10.33
2017-12-21T15:36:38.587Z,10.07
2017-12-21T15:39:06.103Z,10.17
2017-12-21T15:41:33.585Z,10.93
2017-12-21T15:44:01.869Z,10.50
2017-12-21T15:46:30.123Z,14.40
2017-12-21T15:48:57.654Z,12.70
2017-12-21T15:51:25.137Z,10.70
2017-12-21T15:53:52.626Z,13.20
2017-12-21T15:56:20.893Z,10.43
2017-12-21T15:58:48.418Z,13.73
2017-12-21T16:01:16.040Z,13.43
2017-12-21T16:03:44.294Z,13.07
2017-12-21T16:06:11.819Z,17.27
2017-12-21T16:08:39.310Z,11.20
2017-12-21T16:11:06.831Z,11.70
2017-12-21T16:13:34.334Z,13.80
2017-12-21T16:16:01.851Z,18.30
2017-12-21T16:18:29.376Z,12.23
2017-12-21T16:20:56.899Z,11.87
2017-12-21T16:23:24.378Z,12.30
2017-12-21T16:25:51.903Z,13.60
2017-12-21T16:28:20.189Z,12.23
2017-12-21T16:30:47.678Z,13.27
2017-12-21T16:33:15.187Z,12.27
2017-12-21T16:35:42.674Z,14.53
2017-12-21T16:38:10.363Z,14.17
2017-12-21T16:40:37.879Z,13.17
2017-12-21T16:43:05.379Z,13.27
2017-12-21T16:45:32.882Z,14.37
2017-12-21T16:48:00.417Z,14.77
2017-12-21T16:50:27.934Z,22.60
2017-12-21T16:52:55.413Z,13.40
2017-12-21T16:55:23.694Z,16.37
2017-12-21T16:57:51.953Z,12.07
2017-12-21T17:00:19.467Z,13.37
2017-12-21T17:02:46.982Z,12.93
2017-12-21T17:05:14.523Z,12.83
2017-12-21T17:07:42.032Z,12.10
2017-12-21T17:10:10.285Z,12.80
2017-12-21T17:12:37.794Z,11.03
2017-12-21T17:15:05.318Z,13.67
2017-12-21T17:17:32.823Z,16.40
2017-12-21T17:20:00.363Z,17.67
2017-12-21T17:22:28.634Z,13.23
2017-12-21T17:24:56.915Z,16.27
2017-12-21T17:27:25.157Z,23.10
2017-12-21T17:29:52.670Z,17.87
2017-12-21T17:32:20.966Z,15.37
2017-12-21T17:34:48.475Z,16.83
2017-12-21T17:37:16.003Z,18.03
2017-12-21T17:39:43.491Z,15.67
2017-12-21T17:42:10.982Z,17.53
2017-12-21T17:44:38.506Z,17.70
2017-12-21T17:47:06.003Z,22.40
2017-12-21T17:49:33.612Z,23.37
2017-12-21T17:52:01.086Z,18.80
2017-12-21T17:54:28.590Z,14.83
2017-12-21T17:56:56.110Z,16.00
2017-12-21T17:59:23.595Z,14.37
2017-12-21T18:01:51.159Z,21.03
2017-12-21T18:04:18.685Z,1999.90
2017-12-21T18:06:46.196Z,1999.90
2017-12-21T18:09:13.718Z,1999.90
2017-12-21T18:11:41.221Z,1999.90
2017-12-21T18:14:09.483Z,1999.90
2017-12-21T18:16:36.967Z,1999.90
2017-12-21T18:19:04.514Z,1999.90
2017-12-21T18:21:32.004Z,1999.90
2017-12-21T18:23:59.494Z,170.33
2017-12-21T18:26:27.786Z,999.00
2017-12-21T18:28:55.319Z,723.43
2017-12-21T18:31:22.858Z,276.70
2017-12-21T18:33:50.389Z,106.17
2017-12-21T18:36:17.871Z,85.00
2017-12-21T18:38:45.393Z,81.40
2017-12-21T18:41:13.665Z,81.00
2017-12-21T18:43:41.949Z,80.97
2017-12-21T18:46:10.237Z,100.80
2017-12-21T18:48:38.525Z,162.10
2017-12-21T18:51:06.010Z,245.67
2017-12-21T18:53:33.546Z,348.07
2017-12-21T18:56:01.802Z,488.03
2017-12-21T18:58:30.172Z,612.57
2017-12-21T19:00:57.695Z,694.20
2017-12-21T19:03:25.233Z,811.43
2017-12-21T19:05:53.495Z,872.77
2017-12-21T19:08:21.031Z,927.00
2017-12-21T19:10:48.580Z,1024.70
2017-12-21T19:13:16.078Z,1101.80
2017-12-21T19:15:43.570Z,1138.70
2017-12-21T19:18:11.854Z,1177.23
2017-12-21T19:20:39.386Z,1181.20
2017-12-21T19:23:06.892Z,1191.67
2017-12-21T19:25:34.427Z,1191.60
2017-12-21T19:28:01.962Z,1170.80
2017-12-21T19:30:29.487Z,1179.37
2017-12-21T19:32:57.010Z,1151.97
2017-12-21T19:35:24.532Z,1176.97
2017-12-21T19:37:52.024Z,1204.90
2017-12-21T19:40:19.643Z,1255.60
2017-12-21T19:42:47.142Z,1272.47
2017-12-21T19:45:14.642Z,1281.50
2017-12-21T19:47:42.931Z,1276.03
2017-12-21T19:50:11.286Z,1284.03
2017-12-21T19:52:38.784Z,1298.10
2017-12-21T19:55:06.307Z,1327.53
2017-12-21T19:57:33.825Z,1338.77
2017-12-21T20:00:01.362Z,1333.00
2017-12-21T20:02:29.715Z,1326.00
2017-12-21T20:04:57.219Z,1325.33
2017-12-21T20:07:24.708Z,1325.83
2017-12-21T20:09:52.235Z,1328.50
2017-12-21T20:12:20.515Z,1339.83
2017-12-21T20:14:48.852Z,1353.67
2017-12-21T20:17:16.411Z,1353.67
2017-12-21T20:19:43.965Z,1358.83
2017-12-21T20:22:11.523Z,1373.43
2017-12-21T20:24:39.031Z,1365.97
2017-12-21T20:27:06.658Z,1342.23
2017-12-21T20:29:34.173Z,1344.60
2017-12-21T20:32:01.698Z,1327.10
2017-12-21T20:34:29.196Z,1320.50
2017-12-21T20:36:56.763Z,1295.53
2017-12-21T20:39:24.246Z,1282.83
2017-12-21T20:41:51.739Z,1266.63
2017-12-21T20:44:19.303Z,1243.27
2017-12-21T20:46:46.811Z,1248.23
2017-12-21T20:49:14.345Z,1246.13
2017-12-21T20:51:41.898Z,1218.93
2017-12-21T20:54:09.449Z,1225.70
2017-12-21T20:56:36.938Z,1245.23
2017-12-21T20:59:04.436Z,1244.13
2017-12-21T21:01:32.728Z,1227.27
2017-12-21T21:04:00.989Z,1262.27
2017-12-21T21:06:28.522Z,1271.80
2017-12-21T21:08:56.031Z,1298.47
2017-12-21T21:11:24.285Z,1284.37
2017-12-21T21:13:51.807Z,1298.43
2017-12-21T21:16:19.319Z,1297.20
2017-12-21T21:18:46.847Z,1307.33
2017-12-21T21:21:14.351Z,1308.67
2017-12-21T21:23:41.885Z,1302.60
2017-12-21T21:26:09.414Z,1303.10
2017-12-21T21:28:36.931Z,1322.57
2017-12-21T21:31:04.474Z,1327.57
2017-12-21T21:33:31.966Z,1317.30
2017-12-21T21:35:59.504Z,1318.67
2017-12-21T21:38:27.008Z,1326.03
2017-12-21T21:40:55.311Z,1319.00
2017-12-21T21:43:22.814Z,1305.03
2017-12-21T21:45:50.344Z,1287.93
2017-12-21T21:48:17.838Z,1307.70
2017-12-21T21:50:45.363Z,1320.63
2017-12-21T21:53:12.866Z,1320.30
2017-12-21T21:55:40.410Z,1305.83
2017-12-21T21:58:07.906Z,1308.97
2017-12-21T22:00:35.402Z,1311.27
2017-12-21T22:03:03.695Z,1313.07
2017-12-21T22:05:31.196Z,1317.63
2017-12-21T22:07:58.733Z,1312.43
2017-12-21T22:10:26.230Z,1309.97
2017-12-21T22:12:53.751Z,1316.70
2017-12-21T22:15:21.278Z,1324.80
2017-12-21T22:17:48.776Z,1342.27
2017-12-21T22:20:16.309Z,1352.30
2017-12-21T22:22:43.819Z,1361.43
2017-12-21T22:25:11.350Z,1367.03
2017-12-21T22:27:39.609Z,1359.47
2017-12-21T22:30:07.135Z,1351.07
2017-12-21T22:32:34.636Z,1344.70
2017-12-21T22:35:02.157Z,1346.40
2017-12-21T22:37:29.650Z,1340.30
2017-12-21T22:39:57.182Z,1345.93
2017-12-21T22:42:24.675Z,1352.27
2017-12-21T22:44:52.211Z,1360.27
2017-12-21T22:47:19.715Z,1369.87
2017-12-21T22:49:47.202Z,1367.27
2017-12-21T22:52:15.496Z,1366.57
2017-12-21T22:54:43.036Z,1375.70
2017-12-21T22:57:11.338Z,1388.17
2017-12-21T22:59:38.826Z,1387.80
2017-12-21T23:02:06.345Z,1380.87
2017-12-21T23:04:34.607Z,1387.40
2017-12-21T23:07:02.117Z,1398.90
2017-12-21T23:09:29.620Z,1397.93
2017-12-21T23:11:57.149Z,1400.17
2017-12-21T23:14:24.681Z,1400.53
2017-12-21T23:16:52.972Z,1406.07
2017-12-21T23:19:21.268Z,1412.37
2017-12-21T23:21:48.762Z,1412.60
2017-12-21T23:24:16.306Z,1412.43
2017-12-21T23:26:43.834Z,1418.57
2017-12-21T23:29:12.105Z,1425.47
2017-12-21T23:31:39.646Z,1426.30
2017-12-21T23:34:07.174Z,1420.63
2017-12-21T23:36:34.687Z,1422.43
2017-12-21T23:39:02.291Z,1408.47
2017-12-21T23:41:29.799Z,1421.63
2017-12-21T23:43:57.297Z,1421.20
2017-12-21T23:46:25.587Z,1427.67
2017-12-21T23:48:53.885Z,1403.20
2017-12-21T23:51:21.422Z,1435.27
2017-12-21T23:53:49.717Z,1435.07
2017-12-21T23:56:18.018Z,1238.20
2017-12-21T23:58:45.511Z,1284.00
